sensor_id;sensor_type;location;lat;lon;timestamp;temperature;humidity
26053;DHT22;13826;51.186;4.450;2022-10-26T00:00:25;13.70;91.40
26053;DHT22;13826;51.186;4.450;2022-10-26T00:02:53;13.70;91.40
26053;DHT22;13826;51.186;4.450;2022-10-26T00:05:19;13.80;90.30
26053;DHT22;13826;51.186;4.450;2022-10-26T00:07:46;13.80;90.40
26053;DHT22;13826;51.186;4.450;2022-10-26T00:10:12;13.60;91.30
26053;DHT22;13826;51.186;4.450;2022-10-26T00:12:38;13.40;93.80
26053;DHT22;13826;51.186;4.450;2022-10-26T00:15:04;13.40;95.20
26053;DHT22;13826;51.186;4.450;2022-10-26T00:17:29;13.50;94.30
26053;DHT22;13826;51.186;4.450;2022-10-26T00:19:55;13.40;94.70
26053;DHT22;13826;51.186;4.450;2022-10-26T00:22:22;13.30;95.70
26053;DHT22;13826;51.186;4.450;2022-10-26T00:24:47;13.30;95.90
26053;DHT22;13826;51.186;4.450;2022-10-26T00:27:13;13.30;96.50
26053;DHT22;13826;51.186;4.450;2022-10-26T00:29:39;13.30;96.40
26053;DHT22;13826;51.186;4.450;2022-10-26T00:32:04;13.30;96.30
26053;DHT22;13826;51.186;4.450;2022-10-26T00:34:31;13.40;95.70
26053;DHT22;13826;51.186;4.450;2022-10-26T00:36:57;13.40;95.50
26053;DHT22;13826;51.186;4.450;2022-10-26T00:39:22;13.50;94.60
26053;DHT22;13826;51.186;4.450;2022-10-26T00:41:48;13.60;93.80
26053;DHT22;13826;51.186;4.450;2022-10-26T00:49:53;13.70;92.60
26053;DHT22;13826;51.186;4.450;2022-10-26T00:52:20;13.60;92.80
26053;DHT22;13826;51.186;4.450;2022-10-26T00:54:46;13.50;94.20
26053;DHT22;13826;51.186;4.450;2022-10-26T00:57:14;13.40;94.40
26053;DHT22;13826;51.186;4.450;2022-10-26T00:59:41;13.40;94.90
26053;DHT22;13826;51.186;4.450;2022-10-26T01:02:07;13.40;95.50
26053;DHT22;13826;51.186;4.450;2022-10-26T01:04:33;13.40;94.70
26053;DHT22;13826;51.186;4.450;2022-10-26T01:07:03;13.50;93.80
26053;DHT22;13826;51.186;4.450;2022-10-26T01:09:31;13.50;94.50
26053;DHT22;13826;51.186;4.450;2022-10-26T01:11:57;13.40;94.60
26053;DHT22;13826;51.186;4.450;2022-10-26T01:14:24;13.50;94.10
26053;DHT22;13826;51.186;4.450;2022-10-26T01:29:09;13.10;97.30
26053;DHT22;13826;51.186;4.450;2022-10-26T01:31:49;13.10;97.60
26053;DHT22;13826;51.186;4.450;2022-10-26T01:34:45;13.20;96.50
26053;DHT22;13826;51.186;4.450;2022-10-26T01:37:21;13.20;96.90
26053;DHT22;13826;51.186;4.450;2022-10-26T01:39:52;13.20;96.80
26053;DHT22;13826;51.186;4.450;2022-10-26T01:42:21;13.10;97.00
26053;DHT22;13826;51.186;4.450;2022-10-26T01:45:02;13.00;97.90
26053;DHT22;13826;51.186;4.450;2022-10-26T01:47:30;12.90;98.60
26053;DHT22;13826;51.186;4.450;2022-10-26T01:49:58;12.90;98.80
26053;DHT22;13826;51.186;4.450;2022-10-26T01:52:25;13.00;98.60
26053;DHT22;13826;51.186;4.450;2022-10-26T01:55:00;13.00;98.10
26053;DHT22;13826;51.186;4.450;2022-10-26T01:57:26;13.00;98.50
26053;DHT22;13826;51.186;4.450;2022-10-26T02:03:07;13.00;98.20
26053;DHT22;13826;51.186;4.450;2022-10-26T02:05:54;13.00;98.50
26053;DHT22;13826;51.186;4.450;2022-10-26T02:08:41;13.00;98.80
26053;DHT22;13826;51.186;4.450;2022-10-26T02:11:21;13.00;98.80
26053;DHT22;13826;51.186;4.450;2022-10-26T02:16:56;12.90;99.20
26053;DHT22;13826;51.186;4.450;2022-10-26T02:19:41;12.90;99.00
26053;DHT22;13826;51.186;4.450;2022-10-26T02:22:18;13.00;99.10
26053;DHT22;13826;51.186;4.450;2022-10-26T02:24:47;13.10;98.40
26053;DHT22;13826;51.186;4.450;2022-10-26T02:27:26;13.10;97.80
26053;DHT22;13826;51.186;4.450;2022-10-26T02:29:54;13.10;98.10
26053;DHT22;13826;51.186;4.450;2022-10-26T02:32:23;13.00;98.60
26053;DHT22;13826;51.186;4.450;2022-10-26T02:34:51;13.10;98.30
26053;DHT22;13826;51.186;4.450;2022-10-26T02:37:19;13.20;97.60
26053;DHT22;13826;51.186;4.450;2022-10-26T02:39:47;13.20;97.60
26053;DHT22;13826;51.186;4.450;2022-10-26T02:42:14;13.30;97.40
26053;DHT22;13826;51.186;4.450;2022-10-26T02:44:50;13.30;96.80
26053;DHT22;13826;51.186;4.450;2022-10-26T02:47:17;13.40;96.70
26053;DHT22;13826;51.186;4.450;2022-10-26T02:49:43;13.60;96.00
26053;DHT22;13826;51.186;4.450;2022-10-26T02:52:22;13.80;94.30
26053;DHT22;13826;51.186;4.450;2022-10-26T02:54:55;13.70;93.40
26053;DHT22;13826;51.186;4.450;2022-10-26T02:57:39;13.80;93.50
26053;DHT22;13826;51.186;4.450;2022-10-26T03:00:10;13.90;91.90
26053;DHT22;13826;51.186;4.450;2022-10-26T03:02:36;14.00;90.90
26053;DHT22;13826;51.186;4.450;2022-10-26T03:05:34;14.10;90.30
26053;DHT22;13826;51.186;4.450;2022-10-26T03:08:03;14.10;89.70
26053;DHT22;13826;51.186;4.450;2022-10-26T03:10:29;14.20;87.90
26053;DHT22;13826;51.186;4.450;2022-10-26T03:12:56;14.10;89.30
26053;DHT22;13826;51.186;4.450;2022-10-26T03:15:24;14.00;90.30
26053;DHT22;13826;51.186;4.450;2022-10-26T03:17:50;14.10;90.30
26053;DHT22;13826;51.186;4.450;2022-10-26T03:20:16;14.00;90.90
26053;DHT22;13826;51.186;4.450;2022-10-26T03:22:41;13.90;91.40
26053;DHT22;13826;51.186;4.450;2022-10-26T03:25:07;13.80;92.60
26053;DHT22;13826;51.186;4.450;2022-10-26T03:27:33;13.80;93.00
26053;DHT22;13826;51.186;4.450;2022-10-26T03:29:59;13.90;92.60
26053;DHT22;13826;51.186;4.450;2022-10-26T03:32:25;13.90;92.60
26053;DHT22;13826;51.186;4.450;2022-10-26T03:34:50;14.00;91.90
26053;DHT22;13826;51.186;4.450;2022-10-26T03:37:16;14.00;91.70
26053;DHT22;13826;51.186;4.450;2022-10-26T03:39:45;13.90;92.20
26053;DHT22;13826;51.186;4.450;2022-10-26T03:42:10;13.90;91.90
26053;DHT22;13826;51.186;4.450;2022-10-26T03:44:36;14.00;91.50
26053;DHT22;13826;51.186;4.450;2022-10-26T03:47:01;13.90;92.30
26053;DHT22;13826;51.186;4.450;2022-10-26T03:49:27;14.00;91.60
26053;DHT22;13826;51.186;4.450;2022-10-26T03:51:53;14.10;91.00
26053;DHT22;13826;51.186;4.450;2022-10-26T03:54:18;14.00;91.00
26053;DHT22;13826;51.186;4.450;2022-10-26T03:56:44;14.00;91.30
26053;DHT22;13826;51.186;4.450;2022-10-26T03:59:10;14.00;91.40
26053;DHT22;13826;51.186;4.450;2022-10-26T04:01:35;14.10;91.20
26053;DHT22;13826;51.186;4.450;2022-10-26T04:04:01;14.30;90.20
26053;DHT22;13826;51.186;4.450;2022-10-26T04:06:26;14.20;90.00
26053;DHT22;13826;51.186;4.450;2022-10-26T04:08:52;14.20;90.60
26053;DHT22;13826;51.186;4.450;2022-10-26T04:11:22;14.30;88.60
26053;DHT22;13826;51.186;4.450;2022-10-26T04:13:48;14.20;89.10
26053;DHT22;13826;51.186;4.450;2022-10-26T04:16:13;14.10;90.90
26053;DHT22;13826;51.186;4.450;2022-10-26T04:18:39;14.20;91.10
26053;DHT22;13826;51.186;4.450;2022-10-26T04:21:05;14.30;90.90
26053;DHT22;13826;51.186;4.450;2022-10-26T04:23:30;14.20;91.10
26053;DHT22;13826;51.186;4.450;2022-10-26T04:25:56;14.40;90.40
26053;DHT22;13826;51.186;4.450;2022-10-26T04:28:22;14.20;91.00
26053;DHT22;13826;51.186;4.450;2022-10-26T04:30:51;14.30;91.00
26053;DHT22;13826;51.186;4.450;2022-10-26T04:33:16;14.10;92.10
26053;DHT22;13826;51.186;4.450;2022-10-26T04:35:42;14.20;92.20
26053;DHT22;13826;51.186;4.450;2022-10-26T04:38:09;14.30;91.30
26053;DHT22;13826;51.186;4.450;2022-10-26T04:40:35;14.30;91.10
26053;DHT22;13826;51.186;4.450;2022-10-26T04:43:00;14.40;90.50
26053;DHT22;13826;51.186;4.450;2022-10-26T04:45:26;14.40;90.40
26053;DHT22;13826;51.186;4.450;2022-10-26T04:48:04;14.40;90.30
26053;DHT22;13826;51.186;4.450;2022-10-26T04:50:30;14.40;90.70
26053;DHT22;13826;51.186;4.450;2022-10-26T04:52:56;14.40;90.10
26053;DHT22;13826;51.186;4.450;2022-10-26T04:55:22;14.40;90.30
26053;DHT22;13826;51.186;4.450;2022-10-26T04:57:48;14.50;90.00
26053;DHT22;13826;51.186;4.450;2022-10-26T05:00:13;14.70;86.40
26053;DHT22;13826;51.186;4.450;2022-10-26T05:02:39;14.80;83.40
26053;DHT22;13826;51.186;4.450;2022-10-26T05:05:05;14.70;83.80
26053;DHT22;13826;51.186;4.450;2022-10-26T05:07:31;14.60;86.00
26053;DHT22;13826;51.186;4.450;2022-10-26T05:09:56;14.80;83.80
26053;DHT22;13826;51.186;4.450;2022-10-26T05:12:22;14.60;86.10
26053;DHT22;13826;51.186;4.450;2022-10-26T05:14:48;14.70;85.60
26053;DHT22;13826;51.186;4.450;2022-10-26T05:17:14;14.80;83.40
26053;DHT22;13826;51.186;4.450;2022-10-26T05:19:40;14.90;80.40
26053;DHT22;13826;51.186;4.450;2022-10-26T05:22:06;15.00;76.50
26053;DHT22;13826;51.186;4.450;2022-10-26T05:24:31;15.00;76.20
26053;DHT22;13826;51.186;4.450;2022-10-26T05:26:57;15.10;73.00
26053;DHT22;13826;51.186;4.450;2022-10-26T05:29:23;15.20;71.70
26053;DHT22;13826;51.186;4.450;2022-10-26T05:31:48;15.20;71.90
26053;DHT22;13826;51.186;4.450;2022-10-26T05:34:14;15.20;73.00
26053;DHT22;13826;51.186;4.450;2022-10-26T05:36:40;15.20;71.30
26053;DHT22;13826;51.186;4.450;2022-10-26T05:39:05;15.10;72.30
26053;DHT22;13826;51.186;4.450;2022-10-26T05:41:31;15.00;76.00
26053;DHT22;13826;51.186;4.450;2022-10-26T05:43:57;15.00;78.80
26053;DHT22;13826;51.186;4.450;2022-10-26T05:46:22;15.00;76.80
26053;DHT22;13826;51.186;4.450;2022-10-26T05:48:48;15.00;76.20
26053;DHT22;13826;51.186;4.450;2022-10-26T05:51:14;14.90;78.50
26053;DHT22;13826;51.186;4.450;2022-10-26T05:53:40;14.90;79.10
26053;DHT22;13826;51.186;4.450;2022-10-26T05:56:27;15.00;79.50
26053;DHT22;13826;51.186;4.450;2022-10-26T05:58:58;15.00;80.00
26053;DHT22;13826;51.186;4.450;2022-10-26T06:04:35;15.10;79.40
26053;DHT22;13826;51.186;4.450;2022-10-26T06:07:06;15.00;82.00
26053;DHT22;13826;51.186;4.450;2022-10-26T06:09:34;15.10;79.60
26053;DHT22;13826;51.186;4.450;2022-10-26T06:11:59;15.00;80.50
26053;DHT22;13826;51.186;4.450;2022-10-26T06:14:26;14.90;83.20
26053;DHT22;13826;51.186;4.450;2022-10-26T06:17:16;15.00;83.90
26053;DHT22;13826;51.186;4.450;2022-10-26T06:30:09;15.10;83.00
26053;DHT22;13826;51.186;4.450;2022-10-26T06:32:42;15.00;83.70
26053;DHT22;13826;51.186;4.450;2022-10-26T06:38:10;14.90;89.10
26053;DHT22;13826;51.186;4.450;2022-10-26T06:40:40;14.90;90.10
26053;DHT22;13826;51.186;4.450;2022-10-26T06:43:21;14.90;91.20
26053;DHT22;13826;51.186;4.450;2022-10-26T06:45:55;14.90;91.10
26053;DHT22;13826;51.186;4.450;2022-10-26T06:48:27;14.90;91.10
26053;DHT22;13826;51.186;4.450;2022-10-26T06:50:54;14.90;91.20
26053;DHT22;13826;51.186;4.450;2022-10-26T06:53:40;15.00;90.70
26053;DHT22;13826;51.186;4.450;2022-10-26T06:56:10;15.20;89.10
26053;DHT22;13826;51.186;4.450;2022-10-26T06:58:39;15.30;83.90
26053;DHT22;13826;51.186;4.450;2022-10-26T07:01:05;15.40;83.50
26053;DHT22;13826;51.186;4.450;2022-10-26T07:03:31;15.30;84.80
26053;DHT22;13826;51.186;4.450;2022-10-26T07:05:56;15.30;85.60
26053;DHT22;13826;51.186;4.450;2022-10-26T07:08:22;15.40;84.90
26053;DHT22;13826;51.186;4.450;2022-10-26T07:10:48;15.50;83.00
26053;DHT22;13826;51.186;4.450;2022-10-26T07:13:14;15.60;81.80
26053;DHT22;13826;51.186;4.450;2022-10-26T07:15:40;15.50;81.20
26053;DHT22;13826;51.186;4.450;2022-10-26T07:18:07;15.60;77.90
26053;DHT22;13826;51.186;4.450;2022-10-26T07:20:38;15.70;77.00
26053;DHT22;13826;51.186;4.450;2022-10-26T07:23:04;15.60;79.00
26053;DHT22;13826;51.186;4.450;2022-10-26T07:25:34;15.70;77.50
26053;DHT22;13826;51.186;4.450;2022-10-26T07:28:03;15.70;77.10
26053;DHT22;13826;51.186;4.450;2022-10-26T07:30:29;15.60;81.70
26053;DHT22;13826;51.186;4.450;2022-10-26T07:33:06;15.70;79.30
26053;DHT22;13826;51.186;4.450;2022-10-26T07:35:33;15.90;75.40
26053;DHT22;13826;51.186;4.450;2022-10-26T07:37:59;16.10;71.10
26053;DHT22;13826;51.186;4.450;2022-10-26T07:40:25;16.20;68.30
26053;DHT22;13826;51.186;4.450;2022-10-26T07:42:51;16.30;66.30
26053;DHT22;13826;51.186;4.450;2022-10-26T07:45:17;16.50;64.80
26053;DHT22;13826;51.186;4.450;2022-10-26T07:47:43;16.80;58.20
26053;DHT22;13826;51.186;4.450;2022-10-26T07:50:10;17.10;49.00
26053;DHT22;13826;51.186;4.450;2022-10-26T07:52:36;17.30;44.20
26053;DHT22;13826;51.186;4.450;2022-10-26T07:55:04;17.30;44.20
26053;DHT22;13826;51.186;4.450;2022-10-26T07:57:29;17.40;43.90
26053;DHT22;13826;51.186;4.450;2022-10-26T07:59:55;17.50;40.50
26053;DHT22;13826;51.186;4.450;2022-10-26T08:02:21;17.80;34.70
26053;DHT22;13826;51.186;4.450;2022-10-26T08:04:48;18.40;22.40
26053;DHT22;13826;51.186;4.450;2022-10-26T08:07:14;19.20;10.90
26053;DHT22;13826;51.186;4.450;2022-10-26T08:09:40;20.30;1.00
26053;DHT22;13826;51.186;4.450;2022-10-26T08:12:05;20.90;1.00
26053;DHT22;13826;51.186;4.450;2022-10-26T08:14:31;22.40;1.00
26053;DHT22;13826;51.186;4.450;2022-10-26T08:16:57;24.00;1.00
26053;DHT22;13826;51.186;4.450;2022-10-26T08:19:22;24.90;99.90
26053;DHT22;13826;51.186;4.450;2022-10-26T08:21:48;25.20;99.90
26053;DHT22;13826;51.186;4.450;2022-10-26T08:24:14;25.80;99.90
26053;DHT22;13826;51.186;4.450;2022-10-26T08:26:40;27.30;99.90
26053;DHT22;13826;51.186;4.450;2022-10-26T08:29:06;27.00;1.00
26053;DHT22;13826;51.186;4.450;2022-10-26T08:31:32;27.80;99.90
26053;DHT22;13826;51.186;4.450;2022-10-26T08:33:58;28.50;1.00
26053;DHT22;13826;51.186;4.450;2022-10-26T08:36:26;28.80;99.90
26053;DHT22;13826;51.186;4.450;2022-10-26T08:38:52;28.60;1.00
26053;DHT22;13826;51.186;4.450;2022-10-26T08:41:28;28.10;1.00
26053;DHT22;13826;51.186;4.450;2022-10-26T08:44:03;27.80;56.70
26053;DHT22;13826;51.186;4.450;2022-10-26T08:46:42;27.60;81.80
26053;DHT22;13826;51.186;4.450;2022-10-26T08:49:29;28.10;1.00
26053;DHT22;13826;51.186;4.450;2022-10-26T08:52:00;28.30;1.00
26053;DHT22;13826;51.186;4.450;2022-10-26T08:54:49;27.70;1.00
26053;DHT22;13826;51.186;4.450;2022-10-26T08:57:21;27.10;1.00
26053;DHT22;13826;51.186;4.450;2022-10-26T09:02:29;27.20;1.00
26053;DHT22;13826;51.186;4.450;2022-10-26T09:04:57;28.00;1.00
26053;DHT22;13826;51.186;4.450;2022-10-26T09:07:27;28.90;6.00
26053;DHT22;13826;51.186;4.450;2022-10-26T09:10:10;28.80;1.00
26053;DHT22;13826;51.186;4.450;2022-10-26T09:15:58;28.20;1.00
26053;DHT22;13826;51.186;4.450;2022-10-26T09:18:55;28.30;1.00
26053;DHT22;13826;51.186;4.450;2022-10-26T09:21:35;27.40;99.90
26053;DHT22;13826;51.186;4.450;2022-10-26T09:26:57;28.90;28.90
26053;DHT22;13826;51.186;4.450;2022-10-26T09:29:29;29.90;99.90
26053;DHT22;13826;51.186;4.450;2022-10-26T09:31:59;30.80;99.90
26053;DHT22;13826;51.186;4.450;2022-10-26T09:34:48;31.00;99.90
26053;DHT22;13826;51.186;4.450;2022-10-26T09:37:22;30.00;99.90
26053;DHT22;13826;51.186;4.450;2022-10-26T09:42:25;28.00;1.00
26053;DHT22;13826;51.186;4.450;2022-10-26T09:45:02;27.70;1.00
26053;DHT22;13826;51.186;4.450;2022-10-26T09:47:36;27.40;99.90
26053;DHT22;13826;51.186;4.450;2022-10-26T09:52:37;29.00;1.00
26053;DHT22;13826;51.186;4.450;2022-10-26T09:55:02;30.60;1.00
26053;DHT22;13826;51.186;4.450;2022-10-26T09:57:28;31.30;75.60
26053;DHT22;13826;51.186;4.450;2022-10-26T09:59:54;31.50;1.00
26053;DHT22;13826;51.186;4.450;2022-10-26T10:02:43;31.40;1.00
26053;DHT22;13826;51.186;4.450;2022-10-26T10:05:33;31.10;1.00
26053;DHT22;13826;51.186;4.450;2022-10-26T10:11:02;30.40;99.90
26053;DHT22;13826;51.186;4.450;2022-10-26T10:13:36;30.60;94.50
26053;DHT22;13826;51.186;4.450;2022-10-26T10:16:20;31.00;1.00
26053;DHT22;13826;51.186;4.450;2022-10-26T10:18:55;31.10;1.00
26053;DHT22;13826;51.186;4.450;2022-10-26T10:21:30;31.60;1.00
26053;DHT22;13826;51.186;4.450;2022-10-26T10:23:57;32.00;1.00
26053;DHT22;13826;51.186;4.450;2022-10-26T10:26:23;31.50;99.90
26053;DHT22;13826;51.186;4.450;2022-10-26T10:28:57;31.40;1.00
26053;DHT22;13826;51.186;4.450;2022-10-26T10:31:28;30.90;1.00
26053;DHT22;13826;51.186;4.450;2022-10-26T10:33:54;30.70;1.00
26053;DHT22;13826;51.186;4.450;2022-10-26T10:36:22;30.40;90.30
26053;DHT22;13826;51.186;4.450;2022-10-26T10:38:50;30.70;60.00
26053;DHT22;13826;51.186;4.450;2022-10-26T10:41:21;31.00;1.00
26053;DHT22;13826;51.186;4.450;2022-10-26T10:44:04;32.00;1.00
26053;DHT22;13826;51.186;4.450;2022-10-26T10:46:31;31.70;99.90
26053;DHT22;13826;51.186;4.450;2022-10-26T10:49:05;31.10;1.00
26053;DHT22;13826;51.186;4.450;2022-10-26T10:51:38;30.90;1.00
26053;DHT22;13826;51.186;4.450;2022-10-26T10:54:05;31.30;1.00
26053;DHT22;13826;51.186;4.450;2022-10-26T10:56:51;30.50;10.30
26053;DHT22;13826;51.186;4.450;2022-10-26T10:59:43;30.50;1.00
26053;DHT22;13826;51.186;4.450;2022-10-26T11:07:21;30.50;1.00
26053;DHT22;13826;51.186;4.450;2022-10-26T11:09:50;31.20;1.00
26053;DHT22;13826;51.186;4.450;2022-10-26T11:12:25;30.20;1.00
26053;DHT22;13826;51.186;4.450;2022-10-26T11:15:05;29.60;99.90
26053;DHT22;13826;51.186;4.450;2022-10-26T11:20:21;28.60;1.00
26053;DHT22;13826;51.186;4.450;2022-10-26T11:25:24;30.00;99.90
26053;DHT22;13826;51.186;4.450;2022-10-26T11:27:56;30.60;1.00
26053;DHT22;13826;51.186;4.450;2022-10-26T11:30:24;30.80;1.00
26053;DHT22;13826;51.186;4.450;2022-10-26T11:41:05;29.20;99.90
26053;DHT22;13826;51.186;4.450;2022-10-26T11:46:30;28.40;1.00
26053;DHT22;13826;51.186;4.450;2022-10-26T11:49:25;27.60;1.00
26053;DHT22;13826;51.186;4.450;2022-10-26T11:55:00;26.20;99.90
26053;DHT22;13826;51.186;4.450;2022-10-26T11:57:30;25.70;1.00
26053;DHT22;13826;51.186;4.450;2022-10-26T12:00:14;25.60;1.00
26053;DHT22;13826;51.186;4.450;2022-10-26T12:02:50;24.90;99.90
26053;DHT22;13826;51.186;4.450;2022-10-26T12:08:02;24.00;1.00
26053;DHT22;13826;51.186;4.450;2022-10-26T12:10:30;23.80;1.00
26053;DHT22;13826;51.186;4.450;2022-10-26T12:15:49;23.30;1.00
26053;DHT22;13826;51.186;4.450;2022-10-26T12:21:10;23.30;1.00
26053;DHT22;13826;51.186;4.450;2022-10-26T12:23:38;23.00;1.00
26053;DHT22;13826;51.186;4.450;2022-10-26T12:29:12;22.90;1.00
26053;DHT22;13826;51.186;4.450;2022-10-26T12:34:21;22.80;1.00
26053;DHT22;13826;51.186;4.450;2022-10-26T12:39:35;22.70;1.00
26053;DHT22;13826;51.186;4.450;2022-10-26T12:44:35;22.50;1.00
26053;DHT22;13826;51.186;4.450;2022-10-26T12:47:02;22.40;1.00
26053;DHT22;13826;51.186;4.450;2022-10-26T12:52:53;22.30;1.00
26053;DHT22;13826;51.186;4.450;2022-10-26T12:55:29;22.30;1.00
26053;DHT22;13826;51.186;4.450;2022-10-26T13:08:49;22.40;1.00
26053;DHT22;13826;51.186;4.450;2022-10-26T13:11:30;22.50;1.00
26053;DHT22;13826;51.186;4.450;2022-10-26T13:14:01;22.40;1.00
26053;DHT22;13826;51.186;4.450;2022-10-26T13:16:28;22.40;1.00
26053;DHT22;13826;51.186;4.450;2022-10-26T13:18:55;22.20;1.00
26053;DHT22;13826;51.186;4.450;2022-10-26T13:21:22;22.10;1.00
26053;DHT22;13826;51.186;4.450;2022-10-26T13:23:57;22.20;1.00
26053;DHT22;13826;51.186;4.450;2022-10-26T13:26:30;22.20;1.00
26053;DHT22;13826;51.186;4.450;2022-10-26T13:28:58;22.10;1.00
26053;DHT22;13826;51.186;4.450;2022-10-26T13:39:11;22.30;1.00
26053;DHT22;13826;51.186;4.450;2022-10-26T13:41:41;22.30;1.00
26053;DHT22;13826;51.186;4.450;2022-10-26T13:44:29;22.40;1.00
26053;DHT22;13826;51.186;4.450;2022-10-26T13:47:04;22.50;1.00
26053;DHT22;13826;51.186;4.450;2022-10-26T13:49:38;22.50;1.00
26053;DHT22;13826;51.186;4.450;2022-10-26T13:52:10;22.40;1.00
26053;DHT22;13826;51.186;4.450;2022-10-26T13:54:56;22.40;1.00
26053;DHT22;13826;51.186;4.450;2022-10-26T13:57:41;22.50;1.00
26053;DHT22;13826;51.186;4.450;2022-10-26T14:00:20;22.50;1.00
26053;DHT22;13826;51.186;4.450;2022-10-26T14:02:46;22.40;1.00
26053;DHT22;13826;51.186;4.450;2022-10-26T14:05:14;22.30;1.00
26053;DHT22;13826;51.186;4.450;2022-10-26T14:07:51;22.20;1.00
26053;DHT22;13826;51.186;4.450;2022-10-26T14:10:47;22.20;1.00
26053;DHT22;13826;51.186;4.450;2022-10-26T14:13:22;22.30;1.00
26053;DHT22;13826;51.186;4.450;2022-10-26T14:15:49;22.40;1.00
26053;DHT22;13826;51.186;4.450;2022-10-26T14:18:19;22.20;1.00
26053;DHT22;13826;51.186;4.450;2022-10-26T14:20:59;22.20;1.00
26053;DHT22;13826;51.186;4.450;2022-10-26T14:23:36;22.10;1.00
26053;DHT22;13826;51.186;4.450;2022-10-26T14:26:21;22.10;1.00
26053;DHT22;13826;51.186;4.450;2022-10-26T14:28:50;22.10;1.00
26053;DHT22;13826;51.186;4.450;2022-10-26T14:31:30;22.00;1.00
26053;DHT22;13826;51.186;4.450;2022-10-26T14:33:58;22.20;1.00
26053;DHT22;13826;51.186;4.450;2022-10-26T14:36:41;22.20;1.00
26053;DHT22;13826;51.186;4.450;2022-10-26T14:39:15;22.20;1.00
26053;DHT22;13826;51.186;4.450;2022-10-26T14:41:43;22.30;1.00
26053;DHT22;13826;51.186;4.450;2022-10-26T14:44:18;22.40;1.00
26053;DHT22;13826;51.186;4.450;2022-10-26T14:46:45;22.30;1.00
26053;DHT22;13826;51.186;4.450;2022-10-26T14:49:25;22.30;1.00
26053;DHT22;13826;51.186;4.450;2022-10-26T14:51:56;22.20;1.00
26053;DHT22;13826;51.186;4.450;2022-10-26T14:54:25;22.10;1.00
26053;DHT22;13826;51.186;4.450;2022-10-26T14:56:51;22.10;1.00
26053;DHT22;13826;51.186;4.450;2022-10-26T15:01:55;22.00;1.00
26053;DHT22;13826;51.186;4.450;2022-10-26T15:04:28;22.20;1.00
26053;DHT22;13826;51.186;4.450;2022-10-26T15:07:16;22.30;1.00
26053;DHT22;13826;51.186;4.450;2022-10-26T15:09:50;22.20;1.00
26053;DHT22;13826;51.186;4.450;2022-10-26T15:14:45;22.10;1.00
26053;DHT22;13826;51.186;4.450;2022-10-26T15:17:24;22.00;1.00
26053;DHT22;13826;51.186;4.450;2022-10-26T15:20:00;22.00;1.00
26053;DHT22;13826;51.186;4.450;2022-10-26T15:22:27;21.90;1.00
26053;DHT22;13826;51.186;4.450;2022-10-26T15:24:55;21.80;1.00
26053;DHT22;13826;51.186;4.450;2022-10-26T15:27:22;21.70;1.00
26053;DHT22;13826;51.186;4.450;2022-10-26T15:29:50;21.80;1.00
26053;DHT22;13826;51.186;4.450;2022-10-26T15:32:27;21.70;1.00
26053;DHT22;13826;51.186;4.450;2022-10-26T15:37:43;21.50;1.00
26053;DHT22;13826;51.186;4.450;2022-10-26T15:40:09;21.40;1.00
26053;DHT22;13826;51.186;4.450;2022-10-26T15:42:37;21.30;1.00
26053;DHT22;13826;51.186;4.450;2022-10-26T15:45:04;21.30;1.00
26053;DHT22;13826;51.186;4.450;2022-10-26T15:47:38;21.30;1.00
26053;DHT22;13826;51.186;4.450;2022-10-26T15:50:04;21.20;1.00
26053;DHT22;13826;51.186;4.450;2022-10-26T15:52:30;21.20;1.00
26053;DHT22;13826;51.186;4.450;2022-10-26T15:54:56;21.10;1.00
26053;DHT22;13826;51.186;4.450;2022-10-26T15:57:23;21.10;1.00
26053;DHT22;13826;51.186;4.450;2022-10-26T15:59:50;20.90;1.00
26053;DHT22;13826;51.186;4.450;2022-10-26T16:02:16;20.90;1.00
26053;DHT22;13826;51.186;4.450;2022-10-26T16:04:42;21.00;1.00
26053;DHT22;13826;51.186;4.450;2022-10-26T16:07:12;20.90;1.00
26053;DHT22;13826;51.186;4.450;2022-10-26T16:09:39;20.80;1.00
26053;DHT22;13826;51.186;4.450;2022-10-26T16:12:11;20.90;1.00
26053;DHT22;13826;51.186;4.450;2022-10-26T16:14:37;20.70;2.70
26053;DHT22;13826;51.186;4.450;2022-10-26T16:17:03;20.60;2.90
26053;DHT22;13826;51.186;4.450;2022-10-26T16:19:30;20.60;6.30
26053;DHT22;13826;51.186;4.450;2022-10-26T16:21:55;20.60;5.90
26053;DHT22;13826;51.186;4.450;2022-10-26T16:24:21;20.60;6.90
26053;DHT22;13826;51.186;4.450;2022-10-26T16:26:47;20.60;6.40
26053;DHT22;13826;51.186;4.450;2022-10-26T16:29:13;20.60;6.30
26053;DHT22;13826;51.186;4.450;2022-10-26T16:31:38;20.50;4.50
26053;DHT22;13826;51.186;4.450;2022-10-26T16:34:07;20.60;3.80
26053;DHT22;13826;51.186;4.450;2022-10-26T16:36:32;20.50;8.00
26053;DHT22;13826;51.186;4.450;2022-10-26T16:38:59;20.50;9.70
26053;DHT22;13826;51.186;4.450;2022-10-26T16:41:24;20.40;9.60
26053;DHT22;13826;51.186;4.450;2022-10-26T16:43:50;20.30;12.70
26053;DHT22;13826;51.186;4.450;2022-10-26T16:46:18;20.30;12.90
26053;DHT22;13826;51.186;4.450;2022-10-26T16:48:45;20.20;12.50
26053;DHT22;13826;51.186;4.450;2022-10-26T16:51:14;20.20;14.10
26053;DHT22;13826;51.186;4.450;2022-10-26T16:53:40;20.10;15.60
26053;DHT22;13826;51.186;4.450;2022-10-26T16:56:11;20.00;18.80
26053;DHT22;13826;51.186;4.450;2022-10-26T16:58:38;20.10;17.30
26053;DHT22;13826;51.186;4.450;2022-10-26T17:01:04;20.10;15.70
26053;DHT22;13826;51.186;4.450;2022-10-26T17:03:31;20.00;17.90
26053;DHT22;13826;51.186;4.450;2022-10-26T17:05:59;19.90;19.10
26053;DHT22;13826;51.186;4.450;2022-10-26T17:08:28;19.90;21.10
26053;DHT22;13826;51.186;4.450;2022-10-26T17:10:57;19.80;23.60
26053;DHT22;13826;51.186;4.450;2022-10-26T17:13:25;19.80;24.50
26053;DHT22;13826;51.186;4.450;2022-10-26T17:15:51;19.70;24.60
26053;DHT22;13826;51.186;4.450;2022-10-26T17:18:17;19.80;23.90
26053;DHT22;13826;51.186;4.450;2022-10-26T17:20:50;19.80;24.30
26053;DHT22;13826;51.186;4.450;2022-10-26T17:23:16;19.80;23.60
26053;DHT22;13826;51.186;4.450;2022-10-26T17:25:42;19.70;24.60
26053;DHT22;13826;51.186;4.450;2022-10-26T17:28:08;19.60;26.40
26053;DHT22;13826;51.186;4.450;2022-10-26T17:30:33;19.60;28.30
26053;DHT22;13826;51.186;4.450;2022-10-26T17:33:01;19.60;28.60
26053;DHT22;13826;51.186;4.450;2022-10-26T17:35:26;19.50;29.70
26053;DHT22;13826;51.186;4.450;2022-10-26T17:37:52;19.60;29.00
26053;DHT22;13826;51.186;4.450;2022-10-26T17:40:18;19.50;28.60
26053;DHT22;13826;51.186;4.450;2022-10-26T17:42:43;19.60;28.30
26053;DHT22;13826;51.186;4.450;2022-10-26T17:45:09;19.60;28.10
26053;DHT22;13826;51.186;4.450;2022-10-26T17:47:35;19.60;28.00
26053;DHT22;13826;51.186;4.450;2022-10-26T17:50:01;19.60;27.20
26053;DHT22;13826;51.186;4.450;2022-10-26T17:52:29;19.60;27.70
26053;DHT22;13826;51.186;4.450;2022-10-26T17:54:55;19.60;27.40
26053;DHT22;13826;51.186;4.450;2022-10-26T17:57:20;19.50;28.50
26053;DHT22;13826;51.186;4.450;2022-10-26T17:59:46;19.40;30.70
26053;DHT22;13826;51.186;4.450;2022-10-26T18:02:12;19.40;31.50
26053;DHT22;13826;51.186;4.450;2022-10-26T18:04:38;19.40;31.70